Time;durP1;ratioP1;P1;durP2;ratioP2;P2;SDS_P1;SDS_P2;PMS_P1;PMS_P2;Temp;Humidity;BMP_temperature;BMP_pressure;BME280_temperature;BME280_humidity;BME280_pressure;Samples;Min_cycle;Max_cycle;Signal;HPM_P1;HPM_P2
2022/05/25 00:00:09;;;;;;;4.10;1.25;;;15.80;99.90;;;;;;5114255;28;20028;-88
2022/05/25 00:02:35;;;;;;;3.83;0.95;;;15.80;99.90;;;;;;5114328;28;20028;-86
2022/05/25 00:05:01;;;;;;;5.13;1.10;;;15.80;99.90;;;;;;5113917;27;20029;-86
2022/05/25 00:07:27;;;;;;;4.13;1.25;;;15.80;99.90;;;;;;5112149;28;20493;-89
2022/05/25 00:09:52;;;;;;;;;;;15.80;99.90;;;;;;5115824;27;20020;-88
2022/05/25 00:12:20;;;;;;;2.88;1.00;;;15.80;99.90;;;;;;5115636;28;19918;-88
2022/05/25 00:14:47;;;;;;;2.47;0.82;;;15.80;99.90;;;;;;5115696;28;20028;-87
2022/05/25 00:17:12;;;;;;;2.70;1.23;;;15.80;99.90;;;;;;5114642;28;20023;-88
2022/05/25 00:22:22;;;;;;;5.95;1.30;;;15.80;99.90;;;;;;5115229;28;20073;-86
2022/05/25 00:24:48;;;;;;;11.70;1.88;;;15.80;99.90;;;;;;5114280;28;20032;-85
2022/05/25 00:27:14;;;;;;;;;;;15.70;99.90;;;;;;5114839;28;20027;-86
2022/05/25 00:29:39;;;;;;;7.93;1.88;;;15.60;99.90;;;;;;5113707;28;19915;-86
2022/05/25 00:32:06;;;;;;;;;;;15.50;99.90;;;;;;5113852;28;20050;-87
2022/05/25 00:34:32;;;;;;;22.75;2.97;;;15.30;99.90;;;;;;5112451;28;20310;-85
2022/05/25 00:36:58;;;;;;;12.15;1.95;;;15.20;99.90;;;;;;5113477;28;20583;-88
2022/05/25 00:39:24;;;;;;;9.20;2.55;;;15.00;99.90;;;;;;5113663;28;20028;-88
2022/05/25 00:41:50;;;;;;;;;;;14.90;99.90;;;;;;5114746;28;20526;-89
2022/05/25 00:44:16;;;;;;;9.38;2.08;;;14.80;99.90;;;;;;5115064;28;19967;-85
2022/05/25 00:46:42;;;;;;;10.85;3.03;;;14.60;99.90;;;;;;5113767;28;20020;-86
2022/05/25 00:49:18;;;;;;;;;;;14.50;99.90;;;;;;5114532;28;20110;-85
2022/05/25 00:51:54;;;;;;;9.48;2.33;;;14.50;99.90;;;;;;5113324;28;19980;-86
2022/05/25 00:54:28;;;;;;;8.57;3.00;;;14.50;99.90;;;;;;5114854;28;20020;-86
2022/05/25 00:56:58;;;;;;;12.93;2.50;;;14.40;99.90;;;;;;5114405;28;20114;-85
2022/05/25 00:59:34;;;;;;;7.22;2.40;;;14.40;99.90;;;;;;5114412;27;20023;-84
2022/05/25 01:02:00;;;;;;;;;;;14.40;99.90;;;;;;5112798;28;20016;-87
2022/05/25 01:04:26;;;;;;;5.82;2.10;;;14.30;99.90;;;;;;5113034;28;20292;-85
2022/05/25 01:06:57;;;;;;;;;;;14.10;99.90;;;;;;5112077;28;20038;-86
2022/05/25 01:09:57;;;;;;;5.93;2.00;;;14.00;99.90;;;;;;5112235;28;19903;-86
2022/05/25 01:12:37;;;;;;;5.53;2.17;;;14.10;99.90;;;;;;5112695;28;20861;-86
2022/05/25 01:15:22;;;;;;;4.07;2.08;;;14.00;99.90;;;;;;5112701;28;20041;-87
2022/05/25 01:18:10;;;;;;;8.70;2.33;;;14.10;99.90;;;;;;5112480;28;20050;-86
2022/05/25 01:20:48;;;;;;;4.13;2.10;;;14.10;99.90;;;;;;5081246;28;20467;-85
2022/05/25 01:23:32;;;;;;;8.32;2.58;;;14.20;99.90;;;;;;5113202;28;20027;-88
2022/05/25 01:26:32;;;;;;;15.18;2.95;;;14.20;99.90;;;;;;5112221;28;20027;-89
2022/05/25 01:29:33;;;;;;;6.80;3.03;;;14.20;99.90;;;;;;5113758;28;20020;-89
2022/05/25 01:32:11;;;;;;;3.72;2.10;;;14.20;99.90;;;;;;5070922;28;20040;-88
2022/05/25 01:35:05;;;;;;;6.35;2.47;;;14.20;99.90;;;;;;5104723;28;20032;-86
2022/05/25 01:37:46;;;;;;;6.20;2.50;;;14.30;99.90;;;;;;5112737;28;20103;-84
2022/05/25 01:40:17;;;;;;;4.28;2.60;;;14.30;99.90;;;;;;5112796;28;20043;-85
2022/05/25 01:43:08;;;;;;;6.47;2.83;;;14.30;99.90;;;;;;5111434;28;20020;-83
2022/05/25 01:45:46;;;;;;;10.32;3.42;;;14.30;99.90;;;;;;5113252;28;20082;-83
2022/05/25 01:48:13;;;;;;;7.28;3.33;;;14.30;99.90;;;;;;5112739;28;20611;-84
2022/05/25 01:51:13;;;;;;;4.25;2.72;;;14.30;99.90;;;;;;5112230;28;20441;-84
2022/05/25 01:53:42;;;;;;;6.95;3.55;;;14.30;99.90;;;;;;5108936;28;20084;-84
2022/05/25 01:56:12;;;;;;;6.75;3.50;;;14.30;99.90;;;;;;5111339;28;20029;-85
2022/05/25 01:58:42;;;;;;;8.80;3.90;;;14.30;99.90;;;;;;5112700;28;20024;-85
2022/05/25 02:01:09;;;;;;;12.80;4.57;;;14.30;99.90;;;;;;5112887;28;20027;-85
2022/05/25 02:06:31;;;;;;;7.88;3.63;;;14.30;99.90;;;;;;5112413;28;20022;-85
2022/05/25 02:09:33;;;;;;;10.23;3.50;;;14.30;99.90;;;;;;5112251;28;20108;-85
2022/05/25 02:12:10;;;;;;;6.95;3.92;;;14.30;99.90;;;;;;5112199;28;20118;-87
2022/05/25 02:14:46;;;;;;;12.45;4.05;;;14.40;99.90;;;;;;5111061;28;20024;-87
2022/05/25 02:17:25;;;;;;;17.08;5.30;;;14.40;99.90;;;;;;5110931;28;20039;-83
2022/05/25 02:20:15;;;;;;;21.42;6.88;;;14.40;99.90;;;;;;5110313;28;20480;-89
2022/05/25 02:22:47;;;;;;;18.15;6.72;;;14.20;99.90;;;;;;5112529;28;20031;-88
2022/05/25 02:25:37;;;;;;;18.33;5.40;;;14.10;99.90;;;;;;5111568;28;20110;-88
2022/05/25 02:28:43;;;;;;;15.02;5.47;;;14.10;99.90;;;;;;5112438;28;20396;-88
2022/05/25 02:31:14;;;;;;;12.23;5.35;;;14.00;99.90;;;;;;5111990;28;20110;-89
2022/05/25 02:33:43;;;;;;;14.10;5.65;;;13.90;99.90;;;;;;5110887;28;20524;-87
2022/05/25 02:36:11;;;;;;;13.73;5.90;;;13.80;99.90;;;;;;5111771;28;20069;-88
2022/05/25 02:38:39;;;;;;;12.40;5.28;;;13.80;99.90;;;;;;5110407;28;20028;-88
2022/05/25 02:41:08;;;;;;;10.25;6.25;;;13.80;99.90;;;;;;5111804;28;20078;-88
2022/05/25 02:43:36;;;;;;;14.43;6.53;;;13.90;99.90;;;;;;5110510;28;20114;-85
2022/05/25 02:46:03;;;;;;;18.85;7.20;;;13.90;99.90;;;;;;5111816;28;20035;-87
2022/05/25 02:48:28;;;;;;;18.00;6.65;;;14.00;99.90;;;;;;5116403;28;20020;-87
2022/05/25 02:50:54;;;;;;;;;;;14.00;99.90;;;;;;5113931;28;20039;-88
2022/05/25 02:53:20;;;;;;;14.48;6.32;;;14.00;99.90;;;;;;5112593;28;20384;-88
2022/05/25 02:55:45;;;;;;;;;;;14.00;99.90;;;;;;5116412;28;20510;-87
2022/05/25 02:58:11;;;;;;;17.48;7.57;;;14.00;99.90;;;;;;5115032;28;19968;-87
2022/05/25 03:00:37;;;;;;;14.98;5.90;;;14.00;99.90;;;;;;5116064;28;20492;-87
2022/05/25 03:03:02;;;;;;;;;;;14.00;99.90;;;;;;5116030;28;20384;-87
2022/05/25 03:05:28;;;;;;;15.50;7.20;;;14.00;99.90;;;;;;5115832;28;20298;-84
2022/05/25 03:07:54;;;;;;;14.80;6.90;;;14.00;99.90;;;;;;5115495;28;20028;-86
2022/05/25 03:10:19;;;;;;;15.05;7.03;;;14.10;99.90;;;;;;5115503;28;20035;-86
2022/05/25 03:12:45;;;;;;;13.35;8.05;;;14.10;99.90;;;;;;5115684;28;20530;-83
2022/05/25 03:15:11;;;;;;;;;;;14.10;99.90;;;;;;5114627;28;20028;-85
2022/05/25 03:17:37;;;;;;;13.98;7.72;;;14.10;99.90;;;;;;5113491;28;19907;-87
2022/05/25 03:20:03;;;;;;;;;;;14.20;99.90;;;;;;5116501;28;20031;-89
2022/05/25 03:22:28;;;;;;;15.15;5.85;;;14.20;99.90;;;;;;5114845;28;19904;-88
2022/05/25 03:24:54;;;;;;;;;;;14.20;99.90;;;;;;5115503;28;20023;-89
2022/05/25 03:27:20;;;;;;;10.88;4.43;;;14.20;99.90;;;;;;5115661;28;19903;-86
2022/05/25 03:29:45;;;;;;;9.85;4.20;;;14.10;99.90;;;;;;5115493;28;20062;-87
2022/05/25 03:32:11;;;;;;;;;;;14.20;99.90;;;;;;5114625;28;20036;-84
2022/05/25 03:34:37;;;;;;;9.07;3.63;;;14.10;99.90;;;;;;5113725;28;19903;-87
2022/05/25 03:37:03;;;;;;;9.40;3.80;;;14.10;99.90;;;;;;5115184;28;20100;-87
2022/05/25 03:39:29;;;;;;;15.50;4.13;;;14.20;99.90;;;;;;5114512;28;20035;-87
2022/05/25 03:42:04;;;;;;;7.78;3.67;;;14.20;99.90;;;;;;5113785;28;20056;-88
2022/05/25 03:44:30;;;;;;;12.55;4.68;;;14.20;99.90;;;;;;5115731;28;20492;-88
2022/05/25 03:46:55;;;;;;;;;;;14.20;99.90;;;;;;5116522;28;20034;-89
2022/05/25 03:49:21;;;;;;;8.73;4.28;;;14.20;99.90;;;;;;5115432;28;20368;-88
2022/05/25 03:51:47;;;;;;;;;;;14.20;99.90;;;;;;5115077;28;20039;-88
2022/05/25 03:54:13;;;;;;;10.35;4.68;;;14.20;99.90;;;;;;5114466;28;20352;-88
2022/05/25 03:56:38;;;;;;;;;;;14.30;99.90;;;;;;5115170;28;20029;-90
2022/05/25 03:59:05;;;;;;;9.80;4.20;;;14.30;99.90;;;;;;5096698;28;19904;-91
2022/05/25 04:01:34;;;;;;;10.70;4.40;;;14.30;99.90;;;;;;5116096;28;20095;-91
2022/05/25 04:04:00;;;;;;;8.63;4.22;;;14.30;99.90;;;;;;5115944;28;20137;-89
2022/05/25 04:06:25;;;;;;;;;;;14.40;99.90;;;;;;5115995;28;20078;-88
2022/05/25 04:08:51;;;;;;;9.65;4.35;;;14.50;99.90;;;;;;5113224;27;20379;-89
2022/05/25 04:11:17;;;;;;;13.65;5.80;;;14.50;99.90;;;;;;5114097;28;20499;-89
2022/05/25 04:13:42;;;;;;;;;;;14.60;99.90;;;;;;5121500;27;20020;-90
2022/05/25 04:16:08;;;;;;;12.15;5.05;;;14.60;99.90;;;;;;5122212;27;19958;-89
2022/05/25 04:18:33;;;;;;;;;;;14.70;99.90;;;;;;5118640;27;20127;-84
2022/05/25 04:20:59;;;;;;;9.05;4.50;;;14.70;99.90;;;;;;5112220;28;19912;-85
2022/05/25 04:23:26;;;;;;;;;;;14.90;99.90;;;;;;5114600;28;20037;-87
2022/05/25 04:25:53;;;;;;;;;;;15.00;99.90;;;;;;5114399;28;19973;-86
2022/05/25 04:28:19;;;;;;;10.73;5.10;;;15.20;99.90;;;;;;5115207;28;19907;-88
2022/05/25 04:30:45;;;;;;;10.13;5.20;;;15.40;99.90;;;;;;5114554;28;20067;-88
2022/05/25 04:33:10;;;;;;;;;;;15.50;99.90;;;;;;5113951;28;20070;-86
2022/05/25 04:35:36;;;;;;;16.10;5.75;;;15.70;99.90;;;;;;5114054;28;20311;-88
2022/05/25 04:38:02;;;;;;;11.30;5.40;;;15.90;99.90;;;;;;5114930;28;20532;-88
2022/05/25 04:40:35;;;;;;;8.75;5.07;;;16.10;99.90;;;;;;5113511;27;20062;-86
2022/05/25 04:43:07;;;;;;;13.07;5.20;;;16.40;99.90;;;;;;5111887;28;20035;-86
2022/05/25 04:45:33;;;;;;;8.60;5.00;;;16.80;99.90;;;;;;5112319;28;20050;-85
2022/05/25 04:48:01;;;;;;;10.05;4.85;;;16.90;99.90;;;;;;5112733;28;20103;-87
2022/05/25 04:50:30;;;;;;;8.70;4.53;;;17.00;99.90;;;;;;5113357;28;20408;-88
2022/05/25 04:52:59;;;;;;;9.60;5.03;;;17.00;99.90;;;;;;5114535;27;20039;-88
2022/05/25 04:58:23;;;;;;;8.70;4.65;;;17.20;99.90;;;;;;5114743;28;20532;-87
2022/05/25 05:00:49;;;;;;;7.78;4.32;;;17.40;99.90;;;;;;5114301;28;20031;-86
2022/05/25 05:03:16;;;;;;;5.80;3.92;;;17.60;99.90;;;;;;5112857;28;20059;-87
2022/05/25 05:05:42;;;;;;;11.32;4.32;;;17.80;99.90;;;;;;5113855;28;20171;-83
2022/05/25 05:08:08;;;;;;;6.07;3.30;;;17.90;99.90;;;;;;5113656;28;20035;-86
2022/05/25 05:10:34;;;;;;;10.02;4.50;;;17.90;99.90;;;;;;5112380;28;20418;-86
2022/05/25 05:13:04;;;;;;;6.63;3.90;;;18.00;99.90;;;;;;5113581;28;20404;-85
2022/05/25 05:15:33;;;;;;;10.02;4.55;;;18.10;99.90;;;;;;5112721;28;20399;-85
2022/05/25 05:17:59;;;;;;;13.10;4.18;;;18.40;99.90;;;;;;5112235;28;20111;-85
2022/05/25 05:20:24;;;;;;;6.72;3.75;;;18.60;99.90;;;;;;5112593;28;20062;-82
2022/05/25 05:22:50;;;;;;;7.28;3.90;;;18.90;99.90;;;;;;5112158;28;20027;-84
2022/05/25 05:25:16;;;;;;;5.20;3.50;;;19.30;99.90;;;;;;5112220;28;20039;-85
2022/05/25 05:27:41;;;;;;;6.18;3.58;;;19.50;99.90;;;;;;5113717;28;20114;-85
2022/05/25 05:30:10;;;;;;;7.45;3.28;;;19.80;99.90;;;;;;5111914;28;20024;-85
2022/05/25 05:32:36;;;;;;;5.63;2.42;;;20.10;99.90;;;;;;5111253;28;20096;-84
2022/05/25 05:35:02;;;;;;;5.82;2.80;;;20.30;99.90;;;;;;5112406;28;20425;-84
2022/05/25 05:37:47;;;;;;;4.35;2.17;;;20.50;99.90;;;;;;5111053;28;20770;-84
2022/05/25 05:40:16;;;;;;;6.22;2.33;;;20.70;99.90;;;;;;5109459;28;20520;-84
2022/05/25 05:42:45;;;;;;;5.03;2.05;;;20.70;99.90;;;;;;5113208;28;20047;-86
2022/05/25 05:45:17;;;;;;;2.55;2.05;;;20.80;99.90;;;;;;5112907;27;20024;-85
2022/05/25 05:47:52;;;;;;;4.72;2.42;;;21.10;99.90;;;;;;5111921;28;20035;-85
2022/05/25 05:50:20;;;;;;;4.43;2.25;;;21.70;99.90;;;;;;5108512;28;20122;-85
2022/05/25 05:52:47;;;;;;;3.75;1.63;;;22.20;99.90;;;;;;5114179;27;20071;-85
2022/05/25 05:55:13;;;;;;;5.63;2.25;;;22.70;99.90;;;;;;5115264;27;20031;-85
2022/05/25 05:57:39;;;;;;;5.43;2.85;;;22.90;99.70;;;;;;5111550;28;20106;-83
2022/05/25 06:00:10;;;;;;;12.10;2.15;;;23.20;99.90;;;;;;5111862;28;20472;-85
2022/05/25 06:02:36;;;;;;;6.72;2.35;;;23.80;97.60;;;;;;5111675;28;20020;-83
2022/05/25 06:05:01;;;;;;;6.20;2.33;;;24.30;96.20;;;;;;5111883;28;20640;-86
2022/05/25 06:07:27;;;;;;;6.97;2.83;;;25.00;92.20;;;;;;5112734;28;20569;-85
2022/05/25 06:09:54;;;;;;;12.60;2.70;;;25.50;89.90;;;;;;5112676;28;20019;-85
2022/05/25 06:12:20;;;;;;;3.65;1.75;;;26.00;82.80;;;;;;5113289;28;20031;-85
2022/05/25 06:14:45;;;;;;;4.20;2.45;;;26.40;77.60;;;;;;5112828;28;20063;-85
2022/05/25 06:19:55;;;;;;;2.85;1.60;;;27.60;73.00;;;;;;5112808;28;20035;-85
2022/05/25 06:22:22;;;;;;;5.32;2.00;;;28.00;66.20;;;;;;5111387;28;20023;-86
2022/05/25 06:24:52;;;;;;;8.32;2.08;;;28.00;65.40;;;;;;5112667;28;20027;-83
2022/05/25 06:27:20;;;;;;;8.52;2.33;;;27.70;62.80;;;;;;5111695;28;20035;-85
2022/05/25 06:29:48;;;;;;;5.22;1.67;;;28.10;61.40;;;;;;5112264;28;20120;-85
2022/05/25 06:32:16;;;;;;;5.88;1.90;;;28.10;59.40;;;;;;5111376;28;20035;-85
2022/05/25 06:34:47;;;;;;;4.07;1.92;;;28.20;59.80;;;;;;5112461;28;20510;-85
2022/05/25 06:37:15;;;;;;;4.82;2.50;;;28.40;59.00;;;;;;5112336;28;20013;-84
2022/05/25 06:39:41;;;;;;;7.63;1.95;;;27.80;59.40;;;;;;5112773;28;20047;-85
2022/05/25 06:42:08;;;;;;;2.60;1.60;;;27.50;59.80;;;;;;5111422;28;20047;-84
2022/05/25 06:44:34;;;;;;;5.38;1.95;;;27.50;61.30;;;;;;5111455;28;20047;-82
2022/05/25 06:46:59;;;;;;;4.53;1.65;;;27.90;59.30;;;;;;5110863;28;20118;-84
2022/05/25 06:49:25;;;;;;;15.45;2.15;;;28.30;56.50;;;;;;5111772;28;20053;-85
2022/05/25 06:51:51;;;;;;;4.32;1.60;;;28.50;55.20;;;;;;5110402;28;20019;-84
2022/05/25 06:54:18;;;;;;;3.65;1.40;;;28.50;55.90;;;;;;5110659;28;20365;-84
2022/05/25 06:56:44;;;;;;;5.95;1.83;;;28.70;54.90;;;;;;5111033;28;20084;-85
2022/05/25 06:59:11;;;;;;;5.10;1.80;;;28.40;52.30;;;;;;5111657;28;20063;-82
2022/05/25 07:01:38;;;;;;;6.07;2.15;;;27.90;53.10;;;;;;5111121;28;20105;-84
2022/05/25 07:04:05;;;;;;;3.45;2.03;;;26.90;55.00;;;;;;5110204;28;20030;-83
2022/05/25 07:06:31;;;;;;;10.32;2.15;;;26.10;57.40;;;;;;5110490;28;20496;-84
2022/05/25 07:08:57;;;;;;;4.43;1.65;;;25.90;60.50;;;;;;5106751;28;20031;-84
2022/05/25 07:11:23;;;;;;;5.90;1.52;;;26.30;59.10;;;;;;5107037;28;20028;-84
2022/05/25 07:13:50;;;;;;;7.20;1.45;;;26.50;58.00;;;;;;5089652;28;20440;-84
2022/05/25 07:16:19;;;;;;;2.75;1.45;;;26.30;56.40;;;;;;5110064;28;20031;-84
2022/05/25 07:18:45;;;;;;;5.07;1.50;;;25.70;58.70;;;;;;5116223;27;20027;-84
2022/05/25 07:21:27;;;;;;;4.68;1.67;;;25.60;61.70;;;;;;5110587;28;20070;-83
2022/05/25 07:23:54;;;;;;;7.40;1.70;;;25.40;58.80;;;;;;5108383;28;20020;-84
2022/05/25 07:26:22;;;;;;;5.22;1.80;;;25.00;59.30;;;;;;5110021;28;20046;-84
2022/05/25 07:28:49;;;;;;;4.47;1.50;;;24.70;60.70;;;;;;5109605;28;20028;-84
2022/05/25 07:31:35;;;;;;;2.33;1.38;;;24.40;61.70;;;;;;5109209;28;20024;-84
2022/05/25 07:34:05;;;;;;;;;;;24.40;63.60;;;;;;5112567;28;20020;-84
2022/05/25 07:36:33;;;;;;;3.42;1.17;;;24.10;63.90;;;;;;5114007;28;20380;-84
2022/05/25 07:39:02;;;;;;;7.40;1.90;;;24.30;64.50;;;;;;5113704;28;20114;-84
2022/05/25 07:41:29;;;;;;;8.45;1.40;;;24.50;63.90;;;;;;5111586;27;20063;-83
2022/05/25 07:43:59;;;;;;;2.75;1.55;;;24.60;65.60;;;;;;5105243;27;20040;-82
2022/05/25 07:46:29;;;;;;;7.70;1.83;;;24.50;65.00;;;;;;5108159;27;20129;-84
2022/05/25 07:48:55;;;;;;;6.53;1.90;;;24.90;64.60;;;;;;5107189;27;20407;-83
2022/05/25 07:51:21;;;;;;;2.97;1.60;;;25.50;61.50;;;;;;5110341;27;20104;-83
2022/05/25 07:53:59;;;;;;;2.97;1.40;;;25.80;63.20;;;;;;5109662;27;20032;-83
2022/05/25 07:56:35;;;;;;;6.72;1.75;;;26.20;62.70;;;;;;5111806;27;20031;-83
2022/05/25 07:59:07;;;;;;;5.43;1.70;;;26.90;59.50;;;;;;5101062;27;20170;-81
2022/05/25 08:07:10;;;;;;;7.70;2.53;;;27.70;57.30;;;;;;5124193;27;20058;-84
2022/05/25 08:09:36;;;;;;;4.03;1.58;;;27.90;55.30;;;;;;5127124;27;20403;-84
2022/05/25 08:12:05;;;;;;;3.92;1.90;;;27.70;56.30;;;;;;5131929;27;20031;-84
2022/05/25 08:14:31;;;;;;;5.68;1.88;;;27.60;56.50;;;;;;5097806;27;20043;-84
2022/05/25 08:16:56;;;;;;;3.83;1.77;;;27.90;56.40;;;;;;5105295;27;20044;-84
2022/05/25 08:19:23;;;;;;;5.57;1.60;;;27.80;55.70;;;;;;5101407;27;20067;-81
2022/05/25 08:21:52;;;;;;;4.90;1.77;;;27.90;57.30;;;;;;5095823;27;20130;-81
2022/05/25 08:24:18;;;;;;;5.10;2.00;;;27.70;59.80;;;;;;5127695;27;20034;-82
2022/05/25 08:26:44;;;;;;;8.25;1.60;;;27.90;60.10;;;;;;5131780;27;20043;-81
2022/05/25 08:29:10;;;;;;;4.65;1.70;;;28.10;59.40;;;;;;5127082;27;20039;-82
2022/05/25 08:31:37;;;;;;;9.43;1.70;;;28.40;56.00;;;;;;5109094;27;20121;-82
2022/05/25 08:34:04;;;;;;;5.07;2.58;;;28.30;58.20;;;;;;5104915;27;20032;-82
2022/05/25 08:36:30;;;;;;;5.20;1.75;;;28.70;57.10;;;;;;5125347;27;20044;-82
2022/05/25 08:38:55;;;;;;;8.40;1.83;;;29.00;55.60;;;;;;5125812;27;20392;-81
2022/05/25 08:41:34;;;;;;;4.32;2.22;;;29.20;55.40;;;;;;5124904;27;20062;-82
2022/05/25 08:44:02;;;;;;;4.97;2.28;;;29.60;53.60;;;;;;5120356;27;20484;-83
2022/05/25 08:46:30;;;;;;;10.77;2.58;;;29.60;55.90;;;;;;5126667;27;20407;-82
2022/05/25 08:49:01;;;;;;;3.85;2.35;;;29.70;55.10;;;;;;5098314;27;20036;-83
2022/05/25 08:51:27;;;;;;;6.03;2.10;;;30.10;54.80;;;;;;5102982;27;20047;-82
2022/05/25 08:53:56;;;;;;;4.50;2.38;;;30.50;53.70;;;;;;5126477;27;20027;-82
2022/05/25 08:56:28;;;;;;;6.65;1.92;;;30.70;53.70;;;;;;5121242;27;20430;-83
2022/05/25 08:59:10;;;;;;;4.55;2.28;;;30.70;52.10;;;;;;5102669;27;20039;-84
2022/05/25 09:01:58;;;;;;;3.95;1.55;;;30.80;52.50;;;;;;5117854;27;20129;-81
2022/05/25 09:05:02;;;;;;;5.35;2.25;;;30.90;52.10;;;;;;5125524;27;20127;-84
2022/05/25 09:07:53;;;;;;;7.25;1.95;;;31.20;50.30;;;;;;5122587;27;20039;-83
2022/05/25 09:10:19;;;;;;;6.97;1.95;;;31.00;51.00;;;;;;5128204;27;20039;-82
2022/05/25 09:13:30;;;;;;;3.92;2.20;;;31.00;52.10;;;;;;5102730;27;20047;-84
2022/05/25 09:19:00;;;;;;;5.85;1.65;;;30.40;51.20;;;;;;5126807;27;20050;-83
2022/05/25 09:21:30;;;;;;;4.50;2.28;;;30.70;51.80;;;;;;5098984;27;20047;-82
2022/05/25 09:24:00;;;;;;;8.63;2.50;;;30.80;52.50;;;;;;5123647;27;20257;-83
2022/05/25 09:26:26;;;;;;;3.72;2.50;;;31.10;51.00;;;;;;5124352;27;20077;-83
2022/05/25 09:28:57;;;;;;;6.47;2.42;;;30.90;49.90;;;;;;5101015;27;20043;-83
2022/05/25 09:31:31;;;;;;;2.50;2.25;;;30.60;51.40;;;;;;5120291;27;20062;-84
2022/05/25 09:34:03;;;;;;;7.88;2.63;;;30.90;50.50;;;;;;5115795;27;20487;-83
2022/05/25 09:36:35;;;;;;;4.35;2.30;;;30.70;50.40;;;;;;5094762;27;20089;-83
2022/05/25 09:39:03;;;;;;;10.13;3.28;;;30.80;52.00;;;;;;5127803;27;20066;-83
2022/05/25 09:41:31;;;;;;;5.75;2.70;;;30.70;50.30;;;;;;5120086;27;20096;-83
2022/05/25 09:43:59;;;;;;;6.80;2.40;;;30.60;54.00;;;;;;5118859;27;20835;-82
2022/05/25 09:46:45;;;;;;;4.25;2.50;;;30.70;51.90;;;;;;5093938;27;20325;-83
2022/05/25 09:49:45;;;;;;;8.77;3.10;;;31.10;51.70;;;;;;5100474;27;20162;-82
2022/05/25 09:52:27;;;;;;;4.65;2.45;;;31.20;51.50;;;;;;5119098;27;20026;-82
2022/05/25 09:55:33;;;;;;;5.40;2.85;;;31.10;51.30;;;;;;5101929;27;20523;-83
2022/05/25 09:58:02;;;;;;;5.15;2.90;;;31.30;52.40;;;;;;5128228;27;20110;-83
2022/05/25 10:00:38;;;;;;;5.45;3.15;;;31.10;52.20;;;;;;5118927;27;20095;-82
2022/05/25 10:03:10;;;;;;;5.53;3.20;;;30.60;52.40;;;;;;5125005;27;20102;-81
2022/05/25 10:05:55;;;;;;;4.45;2.75;;;29.90;53.60;;;;;;5116021;27;20115;-81
2022/05/25 10:08:32;;;;;;;7.57;2.25;;;29.50;56.50;;;;;;5122423;27;20114;-81
2022/05/25 10:11:27;;;;;;;6.75;2.70;;;29.30;56.50;;;;;;5125110;27;20039;-81
2022/05/25 10:14:13;;;;;;;5.57;2.40;;;29.00;57.20;;;;;;5102992;27;20031;-82
2022/05/25 10:16:39;;;;;;;4.22;2.40;;;28.50;58.40;;;;;;5102867;27;20511;-82
2022/05/25 10:19:14;;;;;;;6.88;2.72;;;28.30;59.40;;;;;;5120734;27;20112;-83
2022/05/25 10:21:50;;;;;;;7.05;3.03;;;28.10;58.80;;;;;;5130857;27;20038;-83
2022/05/25 10:24:41;;;;;;;7.55;3.42;;;27.70;60.70;;;;;;5131633;27;20104;-83
2022/05/25 10:27:27;;;;;;;13.30;3.50;;;27.50;62.00;;;;;;5131676;27;20027;-83
2022/05/25 10:38:29;;;;;;;6.78;3.53;;;27.40;64.00;;;;;;5131674;28;20480;-82
2022/05/25 10:40:56;;;;;;;7.15;3.00;;;27.30;64.70;;;;;;5112595;28;20036;-82
2022/05/25 10:43:26;;;;;;;6.70;2.50;;;27.10;64.80;;;;;;5112888;28;20440;-83
2022/05/25 10:45:54;;;;;;;6.50;3.47;;;27.20;66.30;;;;;;5113491;28;20092;-83
2022/05/25 10:48:43;;;;;;;7.70;2.90;;;27.10;66.10;;;;;;5113335;28;20149;-83
2022/05/25 10:51:15;;;;;;;8.45;3.53;;;26.90;65.20;;;;;;5113245;28;20023;-83
2022/05/25 10:57:19;;;;;;;4.43;2.95;;;26.70;70.20;;;;;;5131746;27;20361;-83
2022/05/25 10:59:56;;;;;;;4.85;3.45;;;26.90;70.50;;;;;;5131010;28;20080;-82
2022/05/25 11:02:43;;;;;;;4.80;2.95;;;27.00;68.50;;;;;;5130639;28;20035;-83
2022/05/25 11:05:18;;;;;;;9.35;3.30;;;27.00;68.70;;;;;;5131497;28;20023;-83
2022/05/25 11:07:44;;;;;;;7.70;3.00;;;27.20;67.90;;;;;;5114453;27;20471;-83
2022/05/25 11:10:19;;;;;;;3.72;2.88;;;27.20;67.80;;;;;;5135515;27;20076;-84
2022/05/25 11:12:53;;;;;;;7.63;3.10;;;27.20;69.90;;;;;;5135739;27;20027;-83
2022/05/25 11:15:24;;;;;;;8.23;3.30;;;27.30;70.00;;;;;;5133958;27;20076;-83
2022/05/25 11:18:27;;;;;;;10.55;4.07;;;27.30;68.80;;;;;;5115489;27;20023;-83
2022/05/25 11:21:26;;;;;;;8.07;3.50;;;27.30;68.90;;;;;;5116971;27;20122;-84
2022/05/25 11:24:20;;;;;;;7.85;2.72;;;27.50;68.30;;;;;;5116829;27;20022;-83
2022/05/25 11:26:49;;;;;;;4.15;3.20;;;27.40;67.80;;;;;;5116908;27;20034;-83
2022/05/25 11:29:23;;;;;;;5.68;3.35;;;27.20;68.50;;;;;;5117179;27;20034;-83
2022/05/25 11:31:54;;;;;;;4.93;3.00;;;27.30;69.00;;;;;;5117283;27;20039;-82
2022/05/25 11:34:26;;;;;;;7.95;3.00;;;27.30;70.40;;;;;;5117195;27;20092;-83
2022/05/25 11:37:13;;;;;;;8.38;3.28;;;27.40;70.10;;;;;;5135315;27;20080;-83
2022/05/25 11:40:03;;;;;;;7.30;2.90;;;27.40;68.00;;;;;;5116959;27;20030;-83
2022/05/25 11:42:56;;;;;;;6.38;3.13;;;27.10;69.10;;;;;;5116373;27;20760;-83
2022/05/25 11:45:41;;;;;;;4.50;2.70;;;26.90;69.80;;;;;;5117101;27;20503;-82
2022/05/25 11:48:28;;;;;;;9.80;3.03;;;26.80;72.60;;;;;;5134748;27;20076;-83
2022/05/25 11:51:21;;;;;;;5.90;3.25;;;26.80;72.00;;;;;;5134739;27;20035;-83
2022/05/25 11:54:12;;;;;;;13.23;3.35;;;26.80;72.40;;;;;;5116251;27;20031;-83
2022/05/25 11:56:57;;;;;;;4.20;2.85;;;26.70;72.60;;;;;;5134658;27;20485;-82
2022/05/25 11:59:32;;;;;;;7.50;3.33;;;26.90;73.60;;;;;;5116842;27;20015;-84
2022/05/25 12:02:19;;;;;;;5.40;3.00;;;27.00;75.20;;;;;;5115940;27;20511;-83
2022/05/25 12:04:53;;;;;;;5.20;3.60;;;27.20;75.00;;;;;;5134518;27;20023;-83
2022/05/25 12:07:27;;;;;;;6.18;3.38;;;27.50;73.80;;;;;;5134976;27;20031;-84
2022/05/25 12:09:54;;;;;;;7.90;3.05;;;27.40;72.50;;;;;;5115516;27;20030;-83
2022/05/25 12:12:30;;;;;;;7.18;3.75;;;27.50;72.30;;;;;;5134448;27;20054;-83
2022/05/25 12:15:11;;;;;;;7.55;3.90;;;27.40;71.90;;;;;;5115887;27;20463;-84
2022/05/25 12:17:56;;;;;;;4.60;2.92;;;27.50;70.50;;;;;;5115708;27;20058;-83
2022/05/25 12:20:41;;;;;;;4.65;3.40;;;27.30;71.20;;;;;;5115129;27;20445;-84
2022/05/25 12:23:13;;;;;;;7.70;3.30;;;27.30;72.80;;;;;;5134245;27;20027;-82
2022/05/25 12:25:48;;;;;;;7.95;3.25;;;27.50;74.50;;;;;;5115829;27;20064;-82
2022/05/25 12:28:14;;;;;;;4.20;2.70;;;27.50;72.50;;;;;;5134271;27;20502;-83
2022/05/25 12:30:44;;;;;;;7.22;2.88;;;27.20;73.00;;;;;;5115347;27;20594;-82
2022/05/25 12:33:21;;;;;;;4.88;3.15;;;27.30;74.40;;;;;;5115683;27;20019;-82
2022/05/25 12:35:47;;;;;;;6.35;3.38;;;27.50;74.90;;;;;;5115985;27;20039;-84
2022/05/25 12:38:13;;;;;;;5.07;3.47;;;27.80;73.70;;;;;;5133695;27;20125;-83
2022/05/25 12:40:43;;;;;;;9.68;2.83;;;28.00;73.40;;;;;;5114798;27;20121;-83
2022/05/25 12:43:39;;;;;;;8.23;3.78;;;28.10;72.40;;;;;;5134205;27;20037;-84
2022/05/25 12:48:56;;;;;;;7.30;3.08;;;28.10;70.90;;;;;;5134082;27;20058;-83
2022/05/25 12:51:42;;;;;;;7.63;3.40;;;28.00;72.20;;;;;;5115216;27;20031;-84
2022/05/25 12:54:25;;;;;;;;;;;28.10;74.00;;;;;;5115766;27;20023;-83
2022/05/25 12:56:52;;;;;;;5.38;2.78;;;28.20;71.50;;;;;;5115379;27;19907;-84
2022/05/25 12:59:37;;;;;;;12.85;4.07;;;28.30;73.60;;;;;;5115222;27;20054;-83
2022/05/25 13:02:26;;;;;;;5.22;2.85;;;28.40;71.90;;;;;;5133108;27;20039;-82
2022/05/25 13:04:59;;;;;;;9.90;3.90;;;28.50;71.70;;;;;;5114855;27;20023;-84
2022/05/25 13:07:45;;;;;;;4.85;3.38;;;28.50;70.50;;;;;;5133866;27;20106;-84
2022/05/25 13:10:21;;;;;;;9.60;3.37;;;28.40;70.50;;;;;;5115520;27;20483;-84
2022/05/25 13:12:58;;;;;;;5.05;2.85;;;28.30;70.30;;;;;;5115450;27;20316;-83
2022/05/25 13:15:24;;;;;;;6.88;3.05;;;28.30;69.90;;;;;;5115206;27;20030;-83
2022/05/25 13:17:57;;;;;;;6.57;3.08;;;28.20;69.50;;;;;;5115125;27;20027;-84
2022/05/25 13:20:26;;;;;;;7.18;3.40;;;28.20;71.00;;;;;;5133348;27;20030;-84
2022/05/25 13:23:00;;;;;;;5.00;2.95;;;28.10;72.30;;;;;;5133599;27;20027;-82
2022/05/25 13:25:46;;;;;;;6.70;3.13;;;28.10;72.40;;;;;;5132964;27;20108;-84
2022/05/25 13:28:23;;;;;;;6.50;2.88;;;28.10;73.80;;;;;;5114074;27;20116;-83
2022/05/25 13:31:08;;;;;;;13.35;3.17;;;28.00;70.10;;;;;;5132242;27;20031;-84
2022/05/25 13:33:43;;;;;;;5.57;3.28;;;27.90;71.00;;;;;;5133186;27;20023;-84
2022/05/25 13:36:18;;;;;;;5.68;3.28;;;28.00;73.70;;;;;;5133061;27;20457;-83
2022/05/25 13:38:56;;;;;;;6.63;3.53;;;27.90;72.00;;;;;;5114863;27;20544;-84
2022/05/25 13:41:28;;;;;;;6.25;3.20;;;27.90;72.80;;;;;;5132373;27;20143;-82
2022/05/25 13:44:00;;;;;;;7.82;3.05;;;27.80;73.00;;;;;;5109552;27;20497;-84
2022/05/25 13:46:46;;;;;;;6.80;3.17;;;27.80;73.80;;;;;;5133459;27;20027;-84
2022/05/25 13:49:21;;;;;;;11.70;3.08;;;27.80;71.90;;;;;;5114572;27;20034;-84
2022/05/25 13:51:48;;;;;;;8.20;2.88;;;27.70;73.60;;;;;;5114223;27;20057;-84